Aviation Digital Data Service (ADDS)

Output produced by METARs form (0307 UTC 28 February 2017)
found at http://aviationweather.gov/adds/metars/
 
KBPT 272340Z 2800/2824 16011KT P6SM VCSH BKN017 OVC045 
     TEMPO 2802/2806 SCT019 BKN022 BKN035 
     FM280600 16011KT P6SM BKN019 
     TEMPO 2808/2812 5SM BR OVC005 
     FM281400 16010KT 5SM BR OVC004